sensor_id;sensor_type;location;lat;lon;timestamp;pressure;altitude;pressure_sealevel;temperature;humidity
79230;BME280;68663;49.122;17.544;2023-12-14T00:02:10;98044.63;;;24.85;44.46
79230;BME280;68663;49.122;17.544;2023-12-14T00:04:35;98047.91;;;24.84;44.40
79230;BME280;68663;49.122;17.544;2023-12-14T00:07:00;98037.38;;;24.84;44.30
79230;BME280;68663;49.122;17.544;2023-12-14T00:09:26;98043.03;;;24.84;44.53
79230;BME280;68663;49.122;17.544;2023-12-14T00:11:51;98053.09;;;24.85;44.54
79230;BME280;68663;49.122;17.544;2023-12-14T00:14:17;98056.56;;;24.89;44.54
79230;BME280;68663;49.122;17.544;2023-12-14T00:16:42;98052.31;;;24.85;44.52
79230;BME280;68663;49.122;17.544;2023-12-14T00:19:07;98050.72;;;24.84;44.54
79230;BME280;68663;49.122;17.544;2023-12-14T00:21:33;98063.63;;;24.85;44.44
79230;BME280;68663;49.122;17.544;2023-12-14T00:23:58;98052.78;;;24.83;44.54
79230;BME280;68663;49.122;17.544;2023-12-14T00:26:23;98049.47;;;24.85;44.61
79230;BME280;68663;49.122;17.544;2023-12-14T00:28:49;98055.44;;;24.87;44.54
79230;BME280;68663;49.122;17.544;2023-12-14T00:31:14;98050.91;;;24.89;44.19
79230;BME280;68663;49.122;17.544;2023-12-14T00:33:40;98056.25;;;24.87;44.33
79230;BME280;68663;49.122;17.544;2023-12-14T00:36:05;98053.09;;;24.85;44.33
79230;BME280;68663;49.122;17.544;2023-12-14T00:38:31;98057.63;;;24.83;44.42
79230;BME280;68663;49.122;17.544;2023-12-14T00:40:56;98067.69;;;24.84;44.61
79230;BME280;68663;49.122;17.544;2023-12-14T00:43:22;98064.09;;;24.83;44.63
79230;BME280;68663;49.122;17.544;2023-12-14T00:45:47;98055.13;;;24.85;44.33
79230;BME280;68663;49.122;17.544;2023-12-14T00:48:12;98063.94;;;24.87;44.23
79230;BME280;68663;49.122;17.544;2023-12-14T00:50:38;98060.78;;;24.85;44.52
79230;BME280;68663;49.122;17.544;2023-12-14T00:53:03;98063.63;;;24.85;44.10
79230;BME280;68663;49.122;17.544;2023-12-14T00:55:29;98066.44;;;24.85;44.31
79230;BME280;68663;49.122;17.544;2023-12-14T00:57:54;98075.38;;;24.83;44.25
79230;BME280;68663;49.122;17.544;2023-12-14T01:00:19;98089.84;;;24.85;44.41
79230;BME280;68663;49.122;17.544;2023-12-14T01:02:45;98090.16;;;24.87;44.20
79230;BME280;68663;49.122;17.544;2023-12-14T01:05:10;98087.66;;;24.89;44.35
79230;BME280;68663;49.122;17.544;2023-12-14T01:07:36;98088.13;;;24.88;44.36
79230;BME280;68663;49.122;17.544;2023-12-14T01:10:02;98096.59;;;24.88;44.26
79230;BME280;68663;49.122;17.544;2023-12-14T01:12:28;98089.84;;;24.85;44.44
79230;BME280;68663;49.122;17.544;2023-12-14T01:14:53;98093.91;;;24.84;44.29
79230;BME280;68663;49.122;17.544;2023-12-14T01:17:18;98093.13;;;24.84;44.25
79230;BME280;68663;49.122;17.544;2023-12-14T01:19:44;98093.00;;;24.87;44.42
79230;BME280;68663;49.122;17.544;2023-12-14T01:22:10;98094.56;;;24.88;44.21
79230;BME280;68663;49.122;17.544;2023-12-14T01:24:35;98099.44;;;24.88;44.42
79230;BME280;68663;49.122;17.544;2023-12-14T01:27:01;98095.50;;;24.85;44.44
79230;BME280;68663;49.122;17.544;2023-12-14T01:29:26;98098.00;;;24.83;44.50
79230;BME280;68663;49.122;17.544;2023-12-14T01:31:51;98110.09;;;24.84;44.50
79230;BME280;68663;49.122;17.544;2023-12-14T01:34:17;98107.13;;;24.87;44.33
79230;BME280;68663;49.122;17.544;2023-12-14T01:36:42;98107.91;;;24.88;44.29
79230;BME280;68663;49.122;17.544;2023-12-14T01:39:08;98112.47;;;24.85;44.21
79230;BME280;68663;49.122;17.544;2023-12-14T01:41:33;98113.25;;;24.86;44.33
79230;BME280;68663;49.122;17.544;2023-12-14T01:43:59;98117.66;;;24.87;44.24
79230;BME280;68663;49.122;17.544;2023-12-14T01:46:24;98120.16;;;24.85;44.46
79230;BME280;68663;49.122;17.544;2023-12-14T01:48:50;98115.59;;;24.87;44.13
79230;BME280;68663;49.122;17.544;2023-12-14T01:51:17;98105.88;;;24.88;44.39
79230;BME280;68663;49.122;17.544;2023-12-14T01:53:42;98112.47;;;24.85;44.47
79230;BME280;68663;49.122;17.544;2023-12-14T01:56:08;98105.22;;;24.84;44.47
79230;BME280;68663;49.122;17.544;2023-12-14T01:58:33;98110.09;;;24.84;44.42
79230;BME280;68663;49.122;17.544;2023-12-14T02:01:15;98117.31;;;24.85;44.50
79230;BME280;68663;49.122;17.544;2023-12-14T02:03:49;98114.50;;;24.85;44.29
79230;BME280;68663;49.122;17.544;2023-12-14T02:06:15;98108.69;;;24.88;44.33
79230;BME280;68663;49.122;17.544;2023-12-14T02:08:40;98107.13;;;24.87;44.48
79230;BME280;68663;49.122;17.544;2023-12-14T02:11:06;98123.31;;;24.87;44.31
79230;BME280;68663;49.122;17.544;2023-12-14T02:13:32;98120.47;;;24.87;44.06
79230;BME280;68663;49.122;17.544;2023-12-14T02:15:58;98125.34;;;24.86;44.27
79230;BME280;68663;49.122;17.544;2023-12-14T02:18:23;98129.41;;;24.85;44.40
79230;BME280;68663;49.122;17.544;2023-12-14T02:20:49;98138.22;;;24.87;44.16
79230;BME280;68663;49.122;17.544;2023-12-14T02:23:14;98134.16;;;24.88;44.08
79230;BME280;68663;49.122;17.544;2023-12-14T02:25:39;98138.22;;;24.87;44.48
79230;BME280;68663;49.122;17.544;2023-12-14T02:28:05;98144.81;;;24.84;44.60
79230;BME280;68663;49.122;17.544;2023-12-14T02:30:30;98146.38;;;24.85;44.32
79230;BME280;68663;49.122;17.544;2023-12-14T02:32:55;98149.22;;;24.85;44.58
79230;BME280;68663;49.122;17.544;2023-12-14T02:35:21;98155.19;;;24.87;44.24
79230;BME280;68663;49.122;17.544;2023-12-14T02:37:48;98158.34;;;24.89;44.33
79230;BME280;68663;49.122;17.544;2023-12-14T02:40:13;98163.66;;;24.87;44.06
79230;BME280;68663;49.122;17.544;2023-12-14T02:42:39;98166.50;;;24.87;44.16
79230;BME280;68663;49.122;17.544;2023-12-14T02:45:07;98169.31;;;24.87;44.15
79230;BME280;68663;49.122;17.544;2023-12-14T02:47:32;98166.19;;;24.85;44.29
79230;BME280;68663;49.122;17.544;2023-12-14T02:49:58;98160.06;;;24.87;44.06
79230;BME280;68663;49.122;17.544;2023-12-14T02:52:23;98150.31;;;24.88;44.13
79230;BME280;68663;49.122;17.544;2023-12-14T02:54:49;98146.25;;;24.89;44.18
79230;BME280;68663;49.122;17.544;2023-12-14T02:57:14;98148.75;;;24.87;43.89
79230;BME280;68663;49.122;17.544;2023-12-14T02:59:40;98146.38;;;24.85;43.93
79230;BME280;68663;49.122;17.544;2023-12-14T03:02:05;98164.94;;;24.86;44.24
79230;BME280;68663;49.122;17.544;2023-12-14T03:04:31;98161.78;;;24.84;44.33
79230;BME280;68663;49.122;17.544;2023-12-14T03:06:56;98168.06;;;24.88;44.17
79230;BME280;68663;49.122;17.544;2023-12-14T03:09:22;98161.94;;;24.90;44.11
79230;BME280;68663;49.122;17.544;2023-12-14T03:11:48;98162.75;;;24.90;44.10
79230;BME280;68663;49.122;17.544;2023-12-14T03:14:14;98168.06;;;24.88;44.17
79230;BME280;68663;49.122;17.544;2023-12-14T03:16:39;98174.97;;;24.87;44.44
79230;BME280;68663;49.122;17.544;2023-12-14T03:19:04;98172.16;;;24.87;44.20
79230;BME280;68663;49.122;17.544;2023-12-14T03:21:30;98185.03;;;24.88;44.08
79230;BME280;68663;49.122;17.544;2023-12-14T03:23:56;98191.47;;;24.89;44.38
79230;BME280;68663;49.122;17.544;2023-12-14T03:26:21;98201.06;;;24.91;44.15
79230;BME280;68663;49.122;17.544;2023-12-14T03:28:47;98187.41;;;24.90;44.19
79230;BME280;68663;49.122;17.544;2023-12-14T03:31:12;98199.16;;;24.88;44.18
79230;BME280;68663;49.122;17.544;2023-12-14T03:33:38;98196.34;;;24.88;44.02
79230;BME280;68663;49.122;17.544;2023-12-14T03:36:04;98196.34;;;24.88;44.22
79230;BME280;68663;49.122;17.544;2023-12-14T03:38:30;98206.88;;;24.88;43.98
79230;BME280;68663;49.122;17.544;2023-12-14T03:40:55;98202.78;;;24.89;44.19
79230;BME280;68663;49.122;17.544;2023-12-14T03:43:21;98214.88;;;24.89;44.09
79230;BME280;68663;49.122;17.544;2023-12-14T03:45:46;98207.19;;;24.90;44.22
79230;BME280;68663;49.122;17.544;2023-12-14T03:48:11;98212.38;;;24.91;43.78
79230;BME280;68663;49.122;17.544;2023-12-14T03:50:37;98206.41;;;24.89;44.03
79230;BME280;68663;49.122;17.544;2023-12-14T03:53:02;98206.88;;;24.88;44.10
79230;BME280;68663;49.122;17.544;2023-12-14T03:55:28;98210.94;;;24.87;44.04
79230;BME280;68663;49.122;17.544;2023-12-14T03:57:53;98212.53;;;24.88;44.28
79230;BME280;68663;49.122;17.544;2023-12-14T04:00:19;98225.88;;;24.87;44.23
79230;BME280;68663;49.122;17.544;2023-12-14T04:02:44;98233.09;;;24.88;44.05
79230;BME280;68663;49.122;17.544;2023-12-14T04:05:10;98235.00;;;24.91;43.94
79230;BME280;68663;49.122;17.544;2023-12-14T04:07:39;98243.16;;;24.89;44.10
79230;BME280;68663;49.122;17.544;2023-12-14T04:10:15;98241.59;;;24.88;44.08
79230;BME280;68663;49.122;17.544;2023-12-14T04:12:41;98246.13;;;24.86;44.25
79230;BME280;68663;49.122;17.544;2023-12-14T04:15:08;98247.38;;;24.85;44.04
79230;BME280;68663;49.122;17.544;2023-12-14T04:17:34;98247.38;;;24.85;44.22
79230;BME280;68663;49.122;17.544;2023-12-14T04:20:00;98255.72;;;24.88;44.13
79230;BME280;68663;49.122;17.544;2023-12-14T04:22:26;98259.34;;;24.89;44.14
79230;BME280;68663;49.122;17.544;2023-12-14T04:24:52;98256.19;;;24.87;43.97
79230;BME280;68663;49.122;17.544;2023-12-14T04:27:17;98260.25;;;24.86;44.30
79230;BME280;68663;49.122;17.544;2023-12-14T04:29:43;98267.50;;;24.87;44.13
79230;BME280;68663;49.122;17.544;2023-12-14T04:32:09;98267.50;;;24.87;44.16
79230;BME280;68663;49.122;17.544;2023-12-14T04:34:34;98276.75;;;24.87;44.25
79230;BME280;68663;49.122;17.544;2023-12-14T04:37:00;98276.63;;;24.91;43.91
79230;BME280;68663;49.122;17.544;2023-12-14T04:39:25;98277.09;;;24.89;44.25
79230;BME280;68663;49.122;17.544;2023-12-14T04:41:51;98276.28;;;24.89;44.29
79230;BME280;68663;49.122;17.544;2023-12-14T04:44:20;98280.38;;;24.88;44.34
79230;BME280;68663;49.122;17.544;2023-12-14T04:46:47;98279.59;;;24.87;44.44
79230;BME280;68663;49.122;17.544;2023-12-14T04:49:12;98285.25;;;24.87;44.56
79230;BME280;68663;49.122;17.544;2023-12-14T04:51:37;98296.41;;;24.91;45.34
79230;BME280;68663;49.122;17.544;2023-12-14T04:54:03;98302.41;;;24.93;45.35
79230;BME280;68663;49.122;17.544;2023-12-14T04:56:29;98299.56;;;24.93;44.91
79230;BME280;68663;49.122;17.544;2023-12-14T04:58:54;98310.09;;;24.92;45.07
79230;BME280;68663;49.122;17.544;2023-12-14T05:01:20;98306.94;;;24.90;44.83
79230;BME280;68663;49.122;17.544;2023-12-14T05:03:45;98308.97;;;24.90;44.96
79230;BME280;68663;49.122;17.544;2023-12-14T05:06:11;98309.44;;;24.88;44.93
79230;BME280;68663;49.122;17.544;2023-12-14T05:08:36;98304.56;;;24.89;45.29
79230;BME280;68663;49.122;17.544;2023-12-14T05:11:02;98321.88;;;24.91;45.09
79230;BME280;68663;49.122;17.544;2023-12-14T05:13:28;98322.19;;;24.93;45.11
79230;BME280;68663;49.122;17.544;2023-12-14T05:15:54;98316.53;;;24.93;45.13
79230;BME280;68663;49.122;17.544;2023-12-14T05:18:19;98331.13;;;24.91;45.26
79230;BME280;68663;49.122;17.544;2023-12-14T05:20:45;98329.56;;;24.90;45.14
79230;BME280;68663;49.122;17.544;2023-12-14T05:23:14;98326.72;;;24.90;45.17
79230;BME280;68663;49.122;17.544;2023-12-14T05:25:39;98322.31;;;24.89;44.61
79230;BME280;68663;49.122;17.544;2023-12-14T05:28:05;98331.13;;;24.91;45.03
79230;BME280;68663;49.122;17.544;2023-12-14T05:30:30;98338.38;;;24.92;44.84
79230;BME280;68663;49.122;17.544;2023-12-14T05:32:55;98338.38;;;24.92;45.15
79230;BME280;68663;49.122;17.544;2023-12-14T05:35:21;98340.88;;;24.90;45.21
79230;BME280;68663;49.122;17.544;2023-12-14T05:37:47;98338.03;;;24.90;44.80
79230;BME280;68663;49.122;17.544;2023-12-14T05:40:12;98335.22;;;24.90;44.82
79230;BME280;68663;49.122;17.544;2023-12-14T05:42:37;98335.22;;;24.90;44.96
79230;BME280;68663;49.122;17.544;2023-12-14T05:45:05;98337.59;;;24.92;44.93
79230;BME280;68663;49.122;17.544;2023-12-14T05:47:30;98344.03;;;24.92;44.98
79230;BME280;68663;49.122;17.544;2023-12-14T05:49:57;98345.59;;;24.93;44.91
79230;BME280;68663;49.122;17.544;2023-12-14T05:52:22;98356.44;;;24.95;44.88
79230;BME280;68663;49.122;17.544;2023-12-14T05:54:48;98359.28;;;24.95;44.74
79230;BME280;68663;49.122;17.544;2023-12-14T05:57:13;98356.91;;;24.93;44.36
79230;BME280;68663;49.122;17.544;2023-12-14T05:59:39;98371.50;;;24.92;44.46
79230;BME280;68663;49.122;17.544;2023-12-14T06:02:04;98383.28;;;24.90;44.67
79230;BME280;68663;49.122;17.544;2023-12-14T06:04:32;98374.78;;;24.90;44.78
79230;BME280;68663;49.122;17.544;2023-12-14T06:06:57;98380.91;;;24.89;44.60
79230;BME280;68663;49.122;17.544;2023-12-14T06:09:23;98378.53;;;24.87;44.75
79230;BME280;68663;49.122;17.544;2023-12-14T06:11:54;98384.19;;;24.87;44.77
79230;BME280;68663;49.122;17.544;2023-12-14T06:14:20;98387.03;;;24.87;44.71
79230;BME280;68663;49.122;17.544;2023-12-14T06:16:46;98388.59;;;24.88;44.69
79230;BME280;68663;49.122;17.544;2023-12-14T06:19:11;98390.19;;;24.89;44.53
79230;BME280;68663;49.122;17.544;2023-12-14T06:21:37;98391.75;;;24.90;44.43
79230;BME280;68663;49.122;17.544;2023-12-14T06:24:02;98388.47;;;24.92;44.68
79230;BME280;68663;49.122;17.544;2023-12-14T06:26:27;98397.75;;;24.92;44.65
79230;BME280;68663;49.122;17.544;2023-12-14T06:28:53;98416.28;;;24.93;44.64
79230;BME280;68663;49.122;17.544;2023-12-14T06:31:18;98417.41;;;24.96;44.32
79230;BME280;68663;49.122;17.544;2023-12-14T06:33:47;98419.13;;;24.93;44.46
79230;BME280;68663;49.122;17.544;2023-12-14T06:36:15;98419.91;;;24.94;44.32
79230;BME280;68663;49.122;17.544;2023-12-14T06:38:42;98426.81;;;24.93;44.48
79230;BME280;68663;49.122;17.544;2023-12-14T06:41:07;98432.94;;;24.91;44.48
79230;BME280;68663;49.122;17.544;2023-12-14T06:43:34;98428.19;;;24.88;44.36
79230;BME280;68663;49.122;17.544;2023-12-14T06:45:59;98435.44;;;24.89;44.52
79230;BME280;68663;49.122;17.544;2023-12-14T06:48:24;98437.00;;;24.90;44.25
79230;BME280;68663;49.122;17.544;2023-12-14T06:50:50;98443.00;;;24.92;44.28
79230;BME280;68663;49.122;17.544;2023-12-14T06:53:15;98452.25;;;24.93;44.41
79230;BME280;68663;49.122;17.544;2023-12-14T06:55:41;98461.06;;;24.95;44.33
79230;BME280;68663;49.122;17.544;2023-12-14T06:58:07;98456.22;;;24.95;44.33
79230;BME280;68663;49.122;17.544;2023-12-14T07:00:37;98457.00;;;24.96;44.18
79230;BME280;68663;49.122;17.544;2023-12-14T07:03:02;98458.16;;;24.98;44.23
79230;BME280;68663;49.122;17.544;2023-12-14T07:05:28;98459.41;;;24.97;43.99
79230;BME280;68663;49.122;17.544;2023-12-14T07:07:54;98460.63;;;24.96;43.99
79230;BME280;68663;49.122;17.544;2023-12-14T07:10:20;98466.28;;;24.96;44.13
79230;BME280;68663;49.122;17.544;2023-12-14T07:12:45;98467.19;;;24.93;44.23
79230;BME280;68663;49.122;17.544;2023-12-14T07:15:11;98473.31;;;24.92;44.33
79230;BME280;68663;49.122;17.544;2023-12-14T07:17:37;98485.41;;;24.92;44.40
79230;BME280;68663;49.122;17.544;2023-12-14T07:20:03;98492.63;;;24.93;44.03
79230;BME280;68663;49.122;17.544;2023-12-14T07:22:29;98496.59;;;24.96;43.99
79230;BME280;68663;49.122;17.544;2023-12-14T07:24:55;98483.69;;;24.95;44.13
79230;BME280;68663;49.122;17.544;2023-12-14T07:27:20;98486.84;;;24.97;44.04
79230;BME280;68663;49.122;17.544;2023-12-14T07:29:45;98487.69;;;24.97;44.25
79230;BME280;68663;49.122;17.544;2023-12-14T07:32:11;98500.56;;;24.98;44.17
79230;BME280;68663;49.122;17.544;2023-12-14T07:34:37;98505.78;;;25.00;43.89
79230;BME280;68663;49.122;17.544;2023-12-14T07:37:02;98507.81;;;24.99;44.45
79230;BME280;68663;49.122;17.544;2023-12-14T07:39:28;98515.84;;;25.01;44.19
79230;BME280;68663;49.122;17.544;2023-12-14T07:41:54;98522.28;;;25.01;44.22
79230;BME280;68663;49.122;17.544;2023-12-14T07:44:19;98518.78;;;24.97;43.75
79230;BME280;68663;49.122;17.544;2023-12-14T07:46:45;98521.63;;;24.97;43.86
79230;BME280;68663;49.122;17.544;2023-12-14T07:49:10;98528.06;;;24.98;43.98
79230;BME280;68663;49.122;17.544;2023-12-14T07:51:36;98536.97;;;24.96;44.31
79230;BME280;68663;49.122;17.544;2023-12-14T07:54:02;98534.94;;;24.97;44.24
79230;BME280;68663;49.122;17.544;2023-12-14T07:56:29;98544.25;;;24.97;44.04
79230;BME280;68663;49.122;17.544;2023-12-14T07:58:56;98551.91;;;24.97;44.09
79230;BME280;68663;49.122;17.544;2023-12-14T08:01:21;98549.91;;;24.97;43.98
79230;BME280;68663;49.122;17.544;2023-12-14T08:03:47;98546.63;;;24.99;43.92
79230;BME280;68663;49.122;17.544;2023-12-14T08:06:12;98555.44;;;25.01;43.81
79230;BME280;68663;49.122;17.544;2023-12-14T08:08:37;98553.06;;;24.99;44.05
79230;BME280;68663;49.122;17.544;2023-12-14T08:11:04;98560.28;;;25.00;44.02
79230;BME280;68663;49.122;17.544;2023-12-14T08:13:30;98565.16;;;25.00;43.89
79230;BME280;68663;49.122;17.544;2023-12-14T08:15:55;98569.13;;;25.02;44.09
79230;BME280;68663;49.122;17.544;2023-12-14T08:18:20;98581.22;;;25.03;43.64
79230;BME280;68663;49.122;17.544;2023-12-14T08:20:46;98584.84;;;25.03;43.84
79230;BME280;68663;49.122;17.544;2023-12-14T08:23:11;98591.75;;;25.02;43.65
79230;BME280;68663;49.122;17.544;2023-12-14T08:25:37;98591.75;;;25.02;43.93
79230;BME280;68663;49.122;17.544;2023-12-14T08:28:02;98587.78;;;25.00;44.10
79230;BME280;68663;49.122;17.544;2023-12-14T08:30:28;98596.72;;;24.98;43.95
79230;BME280;68663;49.122;17.544;2023-12-14T08:32:53;98596.72;;;24.98;44.13
79230;BME280;68663;49.122;17.544;2023-12-14T08:35:19;98602.72;;;25.00;43.86
79230;BME280;68663;49.122;17.544;2023-12-14T08:37:44;98607.91;;;25.02;43.95
79230;BME280;68663;49.122;17.544;2023-12-14T08:40:10;98602.59;;;25.04;44.17
79230;BME280;68663;49.122;17.544;2023-12-14T08:42:35;98611.88;;;25.04;43.91
79230;BME280;68663;49.122;17.544;2023-12-14T08:45:01;98617.53;;;25.04;43.77
79230;BME280;68663;49.122;17.544;2023-12-14T08:47:26;98628.84;;;25.04;43.80
79230;BME280;68663;49.122;17.544;2023-12-14T08:49:52;98640.16;;;25.04;43.81
79230;BME280;68663;49.122;17.544;2023-12-14T08:52:18;98643.78;;;25.05;43.96
79230;BME280;68663;49.122;17.544;2023-12-14T08:54:44;98646.16;;;25.06;43.74
79230;BME280;68663;49.122;17.544;2023-12-14T08:57:10;98652.59;;;25.07;43.58
79230;BME280;68663;49.122;17.544;2023-12-14T08:59:36;98651.47;;;25.04;43.46
79230;BME280;68663;49.122;17.544;2023-12-14T09:02:01;98645.47;;;25.02;43.57
79230;BME280;68663;49.122;17.544;2023-12-14T09:04:26;98647.63;;;24.98;43.58
79230;BME280;68663;49.122;17.544;2023-12-14T09:06:52;98660.53;;;24.99;43.76
79230;BME280;68663;49.122;17.544;2023-12-14T09:09:18;98666.19;;;24.99;43.68
79230;BME280;68663;49.122;17.544;2023-12-14T09:11:44;98667.84;;;24.97;43.82
79230;BME280;68663;49.122;17.544;2023-12-14T09:14:10;98671.50;;;24.97;43.69
79230;BME280;68663;49.122;17.544;2023-12-14T09:16:35;98671.03;;;24.99;43.93
79230;BME280;68663;49.122;17.544;2023-12-14T09:19:02;98666.19;;;24.99;43.74
79230;BME280;68663;49.122;17.544;2023-12-14T09:21:28;98669.34;;;25.01;43.55
79230;BME280;68663;49.122;17.544;2023-12-14T09:23:53;98675.00;;;25.01;43.54
79230;BME280;68663;49.122;17.544;2023-12-14T09:26:19;98673.41;;;25.00;43.70
79230;BME280;68663;49.122;17.544;2023-12-14T09:28:44;98680.66;;;25.01;43.80
79230;BME280;68663;49.122;17.544;2023-12-14T09:31:10;98681.44;;;25.02;43.61
79230;BME280;68663;49.122;17.544;2023-12-14T09:33:36;98684.63;;;25.04;43.60
79230;BME280;68663;49.122;17.544;2023-12-14T09:36:02;98686.66;;;25.03;43.57
79230;BME280;68663;49.122;17.544;2023-12-14T09:38:27;98695.13;;;25.03;43.63
79230;BME280;68663;49.122;17.544;2023-12-14T09:40:53;98690.72;;;25.02;43.65
79230;BME280;68663;49.122;17.544;2023-12-14T09:43:18;98694.00;;;25.01;43.57
79230;BME280;68663;49.122;17.544;2023-12-14T09:45:45;98699.31;;;24.99;43.48
79230;BME280;68663;49.122;17.544;2023-12-14T09:48:11;98694.91;;;24.98;43.54
79230;BME280;68663;49.122;17.544;2023-12-14T09:50:39;98704.19;;;24.98;43.90
79230;BME280;68663;49.122;17.544;2023-12-14T09:53:05;98702.59;;;24.97;43.62
79230;BME280;68663;49.122;17.544;2023-12-14T09:55:31;98715.50;;;24.98;43.81
79230;BME280;68663;49.122;17.544;2023-12-14T09:57:57;98713.00;;;25.00;43.83
79230;BME280;68663;49.122;17.544;2023-12-14T10:00:39;98717.44;;;25.01;43.67
79230;BME280;68663;49.122;17.544;2023-12-14T10:03:24;98719.00;;;25.02;43.71
79230;BME280;68663;49.122;17.544;2023-12-14T10:05:51;98723.41;;;25.03;43.75
79230;BME280;68663;49.122;17.544;2023-12-14T10:08:18;98718.66;;;25.00;43.59
79230;BME280;68663;49.122;17.544;2023-12-14T10:10:46;98719.91;;;24.99;43.67
79230;BME280;68663;49.122;17.544;2023-12-14T10:13:11;98727.59;;;24.99;43.43
79230;BME280;68663;49.122;17.544;2023-12-14T10:15:46;98729.19;;;25.00;43.95
79230;BME280;68663;49.122;17.544;2023-12-14T10:18:19;98724.31;;;25.00;43.80
79230;BME280;68663;49.122;17.544;2023-12-14T10:20:46;98734.41;;;25.01;43.65
79230;BME280;68663;49.122;17.544;2023-12-14T10:23:12;98734.06;;;24.99;43.50
79230;BME280;68663;49.122;17.544;2023-12-14T10:25:37;98736.88;;;24.99;43.47
79230;BME280;68663;49.122;17.544;2023-12-14T10:28:03;98738.47;;;25.00;43.34
79230;BME280;68663;49.122;17.544;2023-12-14T10:30:28;98735.63;;;25.00;43.67
79230;BME280;68663;49.122;17.544;2023-12-14T10:32:54;98740.38;;;25.03;43.51
79230;BME280;68663;49.122;17.544;2023-12-14T10:35:19;98745.59;;;25.05;43.32
79230;BME280;68663;49.122;17.544;2023-12-14T10:37:49;98744.47;;;25.02;43.62
79230;BME280;68663;49.122;17.544;2023-12-14T10:40:15;98738.81;;;25.02;43.26
79230;BME280;68663;49.122;17.544;2023-12-14T10:42:44;98743.66;;;25.02;43.59
79230;BME280;68663;49.122;17.544;2023-12-14T10:45:14;98752.59;;;25.00;43.67
79230;BME280;68663;49.122;17.544;2023-12-14T10:47:47;98751.38;;;25.01;43.45
79230;BME280;68663;49.122;17.544;2023-12-14T10:50:13;98748.53;;;25.01;43.78
79230;BME280;68663;49.122;17.544;2023-12-14T10:52:39;98762.22;;;25.03;43.50
79230;BME280;68663;49.122;17.544;2023-12-14T10:55:33;98756.13;;;25.04;43.53
79230;BME280;68663;49.122;17.544;2023-12-14T10:58:00;98763.03;;;25.03;43.61
79230;BME280;68663;49.122;17.544;2023-12-14T11:00:26;98765.50;;;25.01;43.48
79230;BME280;68663;49.122;17.544;2023-12-14T11:02:51;98769.56;;;25.00;43.47
79230;BME280;68663;49.122;17.544;2023-12-14T11:05:18;98776.47;;;24.99;43.43
79230;BME280;68663;49.122;17.544;2023-12-14T11:07:53;98778.50;;;24.99;43.43
79230;BME280;68663;49.122;17.544;2023-12-14T11:10:26;98784.97;;;24.99;43.63
79230;BME280;68663;49.122;17.544;2023-12-14T11:13:02;98774.91;;;24.98;43.67
79230;BME280;68663;49.122;17.544;2023-12-14T11:15:34;98782.47;;;25.01;43.43
79230;BME280;68663;49.122;17.544;2023-12-14T11:23:15;98781.78;;;24.97;43.40
79230;BME280;68663;49.122;17.544;2023-12-14T11:25:48;98787.44;;;24.97;43.51
79230;BME280;68663;49.122;17.544;2023-12-14T11:28:14;98783.38;;;24.98;43.54
79230;BME280;68663;49.122;17.544;2023-12-14T11:30:42;98785.31;;;25.01;43.35
79230;BME280;68663;49.122;17.544;2023-12-14T11:33:08;98787.00;;;24.99;43.42
79230;BME280;68663;49.122;17.544;2023-12-14T11:35:33;98782.59;;;24.98;43.51
79230;BME280;68663;49.122;17.544;2023-12-14T11:37:59;98784.16;;;24.99;43.62
79230;BME280;68663;49.122;17.544;2023-12-14T11:40:28;98779.31;;;24.99;43.30
79230;BME280;68663;49.122;17.544;2023-12-14T11:43:00;98797.84;;;25.00;43.27
79230;BME280;68663;49.122;17.544;2023-12-14T11:45:26;98788.13;;;25.01;43.57
79230;BME280;68663;49.122;17.544;2023-12-14T11:47:52;98803.50;;;25.00;43.42
79230;BME280;68663;49.122;17.544;2023-12-14T11:50:18;98792.28;;;24.97;43.67
79230;BME280;68663;49.122;17.544;2023-12-14T11:52:44;98791.88;;;24.98;43.62
79230;BME280;68663;49.122;17.544;2023-12-14T11:55:12;98801.94;;;24.99;43.43
79230;BME280;68663;49.122;17.544;2023-12-14T11:57:38;98804.75;;;24.99;43.44
79230;BME280;68663;49.122;17.544;2023-12-14T12:00:04;98803.84;;;25.02;43.64
79230;BME280;68663;49.122;17.544;2023-12-14T12:02:32;98816.41;;;25.01;43.42
79230;BME280;68663;49.122;17.544;2023-12-14T12:04:57;98817.22;;;25.02;43.54
79230;BME280;68663;49.122;17.544;2023-12-14T12:07:23;98815.63;;;25.01;43.48
79230;BME280;68663;49.122;17.544;2023-12-14T12:09:48;98818.09;;;24.99;43.47
79230;BME280;68663;49.122;17.544;2023-12-14T12:12:14;98825.34;;;25.00;43.48
79230;BME280;68663;49.122;17.544;2023-12-14T12:14:40;98827.38;;;24.99;43.48
79230;BME280;68663;49.122;17.544;2023-12-14T12:17:06;98812.78;;;25.01;43.29
79230;BME280;68663;49.122;17.544;2023-12-14T12:19:36;98821.28;;;25.01;43.31
79230;BME280;68663;49.122;17.544;2023-12-14T12:22:02;98823.31;;;25.00;43.56
79230;BME280;68663;49.122;17.544;2023-12-14T12:24:28;98823.31;;;25.00;43.32
79230;BME280;68663;49.122;17.544;2023-12-14T12:26:54;98827.38;;;24.99;43.34
79230;BME280;68663;49.122;17.544;2023-12-14T12:29:20;98830.22;;;24.99;43.50
79230;BME280;68663;49.122;17.544;2023-12-14T12:31:46;98837.00;;;25.02;43.38
79230;BME280;68663;49.122;17.544;2023-12-14T12:34:11;98839.03;;;25.01;43.43
79230;BME280;68663;49.122;17.544;2023-12-14T12:36:37;98847.19;;;24.99;43.54
79230;BME280;68663;49.122;17.544;2023-12-14T12:39:03;98851.25;;;24.98;43.46
79230;BME280;68663;49.122;17.544;2023-12-14T12:41:31;98855.31;;;24.97;43.45
79230;BME280;68663;49.122;17.544;2023-12-14T12:43:56;98866.63;;;24.97;43.48
79230;BME280;68663;49.122;17.544;2023-12-14T12:46:22;98862.56;;;24.98;43.66
79230;BME280;68663;49.122;17.544;2023-12-14T12:48:48;98869.81;;;24.99;43.47
79230;BME280;68663;49.122;17.544;2023-12-14T12:51:14;98868.22;;;24.98;43.46